Hauptseite
METAR-TAF:

METAR-TAF

Flughäfen :

Doylestown Airport

Doylestown, Pennsylvania, Vereinigte Staaten

Breite: 40-19-48N, Länge: 075-07-21W, Höhe: 120 m

Beobachtung

Neuester Wetterbericht von vor 9 Minuten, um 07:54 UTC
Windstille
Temperatur 7°C
Luftfeuchtigkeit 93%
Luftdruck 1001 hPa
Sichtweite: 14.5 km
Himmel klar

METAR: KDYL 090754Z AUTO 00000KT 9SM CLR 07/06 A2955 RMK AO2 SLP006 T00720061

Zeit: 04:03 (08:03 UTC)


TAF: fehlend

Wetterbeobachtungen und Prognosen von mehr als 4000 Flughäfen (METAR und TAF Bericht).

Die verfügbaren Stationen werden durch gelbe und rote Markierungen auf der Karte dargestellt.

Führen Sie die Maus auf sie, um den Namen der Station zu sehen.

Darauf klicken, um die Beobachtung von Wetterbeobachtungen und Prognosen zu sehen.

Um die Karte zu ändern : klicken Sie auf den grünen Tasten mit einem schwarzen Kreuz Zum Vergrößern, auf den grünen Button mit einem Gedankenstrich zu verkleinern, oder auf die grünen Pfeile für benachbarte Karten.


METAR-TAF: